Time,TemperatureF,DewpointF,PressureIn,WindDirection,WindDirectionDegrees,WindSpeedMPH,WindSpeedGustMPH,Humidity,HourlyPrecipIn,Conditions,Clouds,dailyrainin,SoftwareType,DateUTC
2013-08-06 00:12:00,65.9,61.0,29.89,SSE,150,0.0,-999.0,85,-99.99,,,0.00,weatherlink.com 1.10,2013-08-06 04:12:00,
2013-08-06 00:27:00,65.9,61.0,29.89,SSE,149,0.0,-999.0,85,-99.99,,,0.00,weatherlink.com 1.10,2013-08-06 04:27:00,
2013-08-06 00:42:00,65.7,61.0,29.89,SSE,149,0.0,-999.0,85,-99.99,,,0.00,weatherlink.com 1.10,2013-08-06 04:42:00,
2013-08-06 00:57:00,65.6,61.0,29.89,SSE,149,0.0,-999.0,84,-99.99,,,0.00,weatherlink.com 1.10,2013-08-06 04:57:00,
2013-08-06 01:12:00,65.8,61.0,29.89,SSE,149,0.0,-999.0,84,-99.99,,,0.00,weatherlink.com 1.10,2013-08-06 05:12:00,
2013-08-06 01:27:00,65.8,61.0,29.89,SSE,148,0.0,-999.0,84,-99.99,,,0.00,weatherlink.com 1.10,2013-08-06 05:27:00,
2013-08-06 01:42:00,65.8,61.0,29.88,SSE,149,0.0,-999.0,84,-99.99,,,0.00,weatherlink.com 1.10,2013-08-06 05:42:00,
2013-08-06 01:57:00,65.8,61.0,29.88,SSE,149,0.0,-999.0,84,-99.99,,,0.00,weatherlink.com 1.10,2013-08-06 05:57:00,
2013-08-06 02:12:00,65.8,61.0,29.88,SSE,148,0.0,-999.0,85,-99.99,,,0.00,weatherlink.com 1.10,2013-08-06 06:12:00,
2013-08-06 02:28:00,65.5,61.0,29.87,SE,146,0.0,-999.0,86,-99.99,,,0.00,weatherlink.com 1.10,2013-08-06 06:28:00,
2013-08-06 02:43:00,65.2,62.0,29.88,SE,146,0.0,-999.0,88,-99.99,,,0.00,weatherlink.com 1.10,2013-08-06 06:43:00,
2013-08-06 02:58:00,64.8,62.0,29.87,SE,134,4.0,-999.0,89,-99.99,,,0.01,weatherlink.com 1.10,2013-08-06 06:58:00,
2013-08-06 03:13:00,64.4,62.0,29.87,SE,133,0.0,-999.0,90,-99.99,,,0.01,weatherlink.com 1.10,2013-08-06 07:13:00,
2013-08-06 03:28:00,64.2,61.0,29.87,SE,132,0.0,-999.0,90,-99.99,,,0.01,weatherlink.com 1.10,2013-08-06 07:28:00,
2013-08-06 03:43:00,64.0,61.0,29.87,SE,132,0.0,-999.0,90,-99.99,,,0.01,weatherlink.com 1.10,2013-08-06 07:43:00,
2013-08-06 03:58:00,63.9,61.0,29.87,SE,133,0.0,-999.0,91,-99.99,,,0.02,weatherlink.com 1.10,2013-08-06 07:58:00,
2013-08-06 04:13:00,63.9,61.0,29.87,SE,132,0.0,-999.0,91,-99.99,,,0.03,weatherlink.com 1.10,2013-08-06 08:13:00,
2013-08-06 04:28:00,63.8,62.0,29.87,SE,133,0.0,-999.0,92,-99.99,,,0.04,weatherlink.com 1.10,2013-08-06 08:28:00,
2013-08-06 04:43:00,63.7,61.0,29.87,SE,133,0.0,-999.0,92,-99.99,,,0.05,weatherlink.com 1.10,2013-08-06 08:43:00,
2013-08-06 04:58:00,63.6,61.0,29.87,SE,132,0.0,-999.0,92,-99.99,,,0.07,weatherlink.com 1.10,2013-08-06 08:58:00,
2013-08-06 05:13:00,63.5,62.0,29.86,SE,133,0.0,-999.0,93,-99.99,,,0.09,weatherlink.com 1.10,2013-08-06 09:13:00,
2013-08-06 05:29:00,63.3,61.0,29.86,SE,132,0.0,-999.0,93,-99.99,,,0.14,weatherlink.com 1.10,2013-08-06 09:29:00,
2013-08-06 05:44:00,62.6,61.0,29.85,SE,133,2.0,-999.0,93,-99.99,,,0.22,weatherlink.com 1.10,2013-08-06 09:44:00,
2013-08-06 05:59:00,62.6,61.0,29.86,SE,130,0.0,-999.0,94,-99.99,,,0.29,weatherlink.com 1.10,2013-08-06 09:59:00,
2013-08-06 06:14:00,62.5,61.0,29.85,SE,129,2.0,-999.0,94,-99.99,,,0.33,weatherlink.com 1.10,2013-08-06 10:14:00,
2013-08-06 06:29:00,62.8,61.0,29.86,ESE,122,0.0,-999.0,94,-99.99,,,0.33,weatherlink.com 1.10,2013-08-06 10:29:00,
2013-08-06 06:44:00,62.6,61.0,29.86,ESE,113,4.0,-999.0,94,-99.99,,,0.33,weatherlink.com 1.10,2013-08-06 10:44:00,
2013-08-06 06:59:00,62.5,61.0,29.86,ESE,115,0.0,-999.0,94,-99.99,,,0.33,weatherlink.com 1.10,2013-08-06 10:59:00,
2013-08-06 07:14:00,62.5,61.0,29.86,ESE,115,0.0,-999.0,94,-99.99,,,0.33,weatherlink.com 1.10,2013-08-06 11:14:00,
2013-08-06 07:29:00,62.4,61.0,29.87,ESE,115,0.0,-999.0,94,-99.99,,,0.33,weatherlink.com 1.10,2013-08-06 11:29:00,
2013-08-06 07:44:00,62.6,61.0,29.87,ESE,115,0.0,-999.0,94,-99.99,,,0.33,weatherlink.com 1.10,2013-08-06 11:44:00,
2013-08-06 07:59:00,63.2,62.0,29.88,ESE,115,0.0,-999.0,94,-99.99,,,0.33,weatherlink.com 1.10,2013-08-06 11:59:00,
2013-08-06 08:14:00,63.5,62.0,29.89,ESE,115,0.0,-999.0,94,-99.99,,,0.33,weatherlink.com 1.10,2013-08-06 12:14:00,
2013-08-06 08:30:00,64.1,62.0,29.88,ESE,115,0.0,-999.0,94,-99.99,,,0.33,weatherlink.com 1.10,2013-08-06 12:30:00,
2013-08-06 08:45:00,64.5,63.0,29.89,ESE,115,0.0,-999.0,94,-99.99,,,0.33,weatherlink.com 1.10,2013-08-06 12:45:00,
2013-08-06 09:00:00,65.0,63.0,29.88,ESE,122,0.0,-999.0,94,-99.99,,,0.33,weatherlink.com 1.10,2013-08-06 13:00:00,
2013-08-06 09:15:00,66.1,64.0,29.87,SSE,164,0.0,-999.0,94,-99.99,,,0.33,weatherlink.com 1.10,2013-08-06 13:15:00,
2013-08-06 09:30:00,67.6,65.0,29.87,South,183,0.0,-999.0,92,-99.99,,,0.33,weatherlink.com 1.10,2013-08-06 13:30:00,
2013-08-06 09:45:00,68.0,65.0,29.86,SSW,207,2.0,-999.0,89,-99.99,,,0.33,weatherlink.com 1.10,2013-08-06 13:45:00,
2013-08-06 10:00:00,68.7,66.0,29.87,SSW,192,0.0,-999.0,90,-99.99,,,0.33,weatherlink.com 1.10,2013-08-06 14:00:00,
2013-08-06 10:15:00,69.4,66.0,29.87,SSW,211,4.0,-999.0,89,-99.99,,,0.33,weatherlink.com 1.10,2013-08-06 14:15:00,
2013-08-06 10:30:00,69.5,66.0,29.87,SSW,212,1.0,-999.0,89,-99.99,,,0.33,weatherlink.com 1.10,2013-08-06 14:30:00,
2013-08-06 10:45:00,69.8,67.0,29.87,SSW,200,0.0,-999.0,90,-99.99,,,0.33,weatherlink.com 1.10,2013-08-06 14:45:00,
2013-08-06 11:00:00,70.8,67.0,29.87,SSW,206,1.0,-999.0,88,-99.99,,,0.33,weatherlink.com 1.10,2013-08-06 15:00:00,
2013-08-06 11:16:00,71.5,67.0,29.86,SW,215,0.0,-999.0,86,-99.99,,,0.33,weatherlink.com 1.10,2013-08-06 15:16:00,
2013-08-06 11:31:00,71.6,68.0,29.86,SSW,205,0.0,-999.0,87,-99.99,,,0.33,weatherlink.com 1.10,2013-08-06 15:31:00,
2013-08-06 11:46:00,71.8,68.0,29.87,SW,214,0.0,-999.0,86,-99.99,,,0.33,weatherlink.com 1.10,2013-08-06 15:46:00,
2013-08-06 12:01:00,72.1,67.0,29.88,SSW,204,0.0,-999.0,85,-99.99,,,0.33,weatherlink.com 1.10,2013-08-06 16:01:00,
2013-08-06 12:16:00,72.8,68.0,29.87,South,186,0.0,-999.0,85,-99.99,,,0.33,weatherlink.com 1.10,2013-08-06 16:16:00,
2013-08-06 12:31:00,73.4,68.0,29.87,SSW,192,0.0,-999.0,83,-99.99,,,0.33,weatherlink.com 1.10,2013-08-06 16:31:00,
2013-08-06 12:46:00,73.3,68.0,29.88,SW,225,0.0,-999.0,83,-99.99,,,0.33,weatherlink.com 1.10,2013-08-06 16:46:00,
2013-08-06 13:01:00,73.1,68.0,29.88,SSW,209,0.0,-999.0,84,-99.99,,,0.33,weatherlink.com 1.10,2013-08-06 17:01:00,
2013-08-06 13:16:00,73.1,68.0,29.88,SSW,208,2.0,-999.0,85,-99.99,,,0.33,weatherlink.com 1.10,2013-08-06 17:16:00,
2013-08-06 13:31:00,73.1,68.0,29.88,WSW,244,2.0,-999.0,84,-99.99,,,0.33,weatherlink.com 1.10,2013-08-06 17:31:00,
2013-08-06 13:46:00,73.5,68.0,29.88,SW,225,0.0,-999.0,83,-99.99,,,0.33,weatherlink.com 1.10,2013-08-06 17:46:00,
2013-08-06 14:01:00,73.7,69.0,29.88,SSW,206,0.0,-999.0,84,-99.99,,,0.33,weatherlink.com 1.10,2013-08-06 18:01:00,
2013-08-06 14:17:00,74.7,69.0,29.88,SW,227,2.0,-999.0,82,-99.99,,,0.33,weatherlink.com 1.10,2013-08-06 18:17:00,
2013-08-06 14:32:00,76.2,70.0,29.87,SSW,204,0.0,-999.0,82,-99.99,,,0.33,weatherlink.com 1.10,2013-08-06 18:32:00,
2013-08-06 14:47:00,77.8,70.0,29.86,South,184,0.0,-999.0,76,-99.99,,,0.33,weatherlink.com 1.10,2013-08-06 18:47:00,
2013-08-06 15:02:00,77.3,69.0,29.86,SW,236,3.0,-999.0,76,-99.99,,,0.33,weatherlink.com 1.10,2013-08-06 19:02:00,
2013-08-06 15:17:00,78.2,70.0,29.86,SW,221,0.0,-999.0,75,-99.99,,,0.33,weatherlink.com 1.10,2013-08-06 19:17:00,
2013-08-06 15:32:00,78.0,70.0,29.86,SW,218,0.0,-999.0,76,-99.99,,,0.33,weatherlink.com 1.10,2013-08-06 19:32:00,
2013-08-06 15:47:00,78.5,70.0,29.85,South,171,1.0,-999.0,75,-99.99,,,0.33,weatherlink.com 1.10,2013-08-06 19:47:00,
2013-08-06 16:02:00,78.0,70.0,29.85,South,185,0.0,-999.0,75,-99.99,,,0.33,weatherlink.com 1.10,2013-08-06 20:02:00,
2013-08-06 16:17:00,78.2,69.0,29.84,SE,136,0.0,-999.0,74,-99.99,,,0.33,weatherlink.com 1.10,2013-08-06 20:17:00,
2013-08-06 16:32:00,78.8,70.0,29.84,SSW,200,0.0,-999.0,74,-99.99,,,0.33,weatherlink.com 1.10,2013-08-06 20:32:00,
2013-08-06 16:47:00,79.0,71.0,29.84,SSW,198,0.0,-999.0,76,-99.99,,,0.33,weatherlink.com 1.10,2013-08-06 20:47:00,
2013-08-06 17:03:00,80.0,70.0,29.84,SSW,207,0.0,-999.0,71,-99.99,,,0.33,weatherlink.com 1.10,2013-08-06 21:03:00,
2013-08-06 17:18:00,79.2,70.0,29.84,South,180,0.0,-999.0,73,-99.99,,,0.33,weatherlink.com 1.10,2013-08-06 21:18:00,
2013-08-06 17:33:00,78.7,70.0,29.84,South,190,1.0,-999.0,75,-99.99,,,0.33,weatherlink.com 1.10,2013-08-06 21:33:00,
2013-08-06 17:48:00,79.9,71.0,29.84,SSW,203,2.0,-999.0,74,-99.99,,,0.33,weatherlink.com 1.10,2013-08-06 21:48:00,
2013-08-06 18:03:00,81.0,70.0,29.83,SSE,161,0.0,-999.0,70,-99.99,,,0.33,weatherlink.com 1.10,2013-08-06 22:03:00,
2013-08-06 18:18:00,79.8,70.0,29.84,SSW,213,0.0,-999.0,72,-99.99,,,0.33,weatherlink.com 1.10,2013-08-06 22:18:00,
2013-08-06 18:33:00,80.1,70.0,29.84,SSW,211,0.0,-999.0,72,-99.99,,,0.33,weatherlink.com 1.10,2013-08-06 22:33:00,
2013-08-06 18:48:00,79.3,70.0,29.84,SSW,200,0.0,-999.0,73,-99.99,,,0.33,weatherlink.com 1.10,2013-08-06 22:48:00,
2013-08-06 19:03:00,78.5,70.0,29.84,South,178,0.0,-999.0,74,-99.99,,,0.33,weatherlink.com 1.10,2013-08-06 23:03:00,
2013-08-06 19:18:00,78.4,70.0,29.84,South,174,0.0,-999.0,75,-99.99,,,0.33,weatherlink.com 1.10,2013-08-06 23:18:00,
2013-08-06 19:33:00,78.3,70.0,29.84,South,188,0.0,-999.0,76,-99.99,,,0.33,weatherlink.com 1.10,2013-08-06 23:33:00,
2013-08-06 19:48:00,77.5,70.0,29.84,South,182,0.0,-999.0,77,-99.99,,,0.33,weatherlink.com 1.10,2013-08-06 23:48:00,
2013-08-06 20:04:00,76.5,70.0,29.84,South,182,0.0,-999.0,79,-99.99,,,0.33,weatherlink.com 1.10,2013-08-07 00:04:00,
2013-08-06 20:19:00,75.7,70.0,29.84,South,182,0.0,-999.0,81,-99.99,,,0.33,weatherlink.com 1.10,2013-08-07 00:19:00,
2013-08-06 20:34:00,74.8,69.0,29.84,South,181,0.0,-999.0,82,-99.99,,,0.33,weatherlink.com 1.10,2013-08-07 00:34:00,
2013-08-06 20:49:00,74.0,69.0,29.84,South,181,0.0,-999.0,84,-99.99,,,0.33,weatherlink.com 1.10,2013-08-07 00:49:00,
2013-08-06 21:04:00,73.4,69.0,29.84,South,181,0.0,-999.0,85,-99.99,,,0.33,weatherlink.com 1.10,2013-08-07 01:04:00,
2013-08-06 21:19:00,73.0,69.0,29.84,South,181,0.0,-999.0,86,-99.99,,,0.33,weatherlink.com 1.10,2013-08-07 01:19:00,
2013-08-06 21:34:00,72.7,69.0,29.84,South,181,0.0,-999.0,87,-99.99,,,0.33,weatherlink.com 1.10,2013-08-07 01:34:00,
2013-08-06 21:49:00,72.6,69.0,29.84,South,181,0.0,-999.0,87,-99.99,,,0.33,weatherlink.com 1.10,2013-08-07 01:49:00,
2013-08-06 22:04:00,72.4,69.0,29.84,South,181,0.0,-999.0,88,-99.99,,,0.33,weatherlink.com 1.10,2013-08-07 02:04:00,
2013-08-06 22:19:00,72.0,68.0,29.84,South,181,0.0,-999.0,88,-99.99,,,0.33,weatherlink.com 1.10,2013-08-07 02:19:00,
2013-08-06 22:34:00,71.7,68.0,29.84,South,180,0.0,-999.0,89,-99.99,,,0.33,weatherlink.com 1.10,2013-08-07 02:34:00,
2013-08-06 22:49:00,71.3,68.0,29.84,South,181,0.0,-999.0,89,-99.99,,,0.33,weatherlink.com 1.10,2013-08-07 02:49:00,
2013-08-06 23:04:00,70.9,68.0,29.85,South,181,0.0,-999.0,90,-99.99,,,0.33,weatherlink.com 1.10,2013-08-07 03:04:00,
2013-08-06 23:19:00,70.4,68.0,29.84,South,181,0.0,-999.0,91,-99.99,,,0.33,weatherlink.com 1.10,2013-08-07 03:19:00,
2013-08-06 23:35:00,70.2,68.0,29.84,South,181,0.0,-999.0,91,-99.99,,,0.33,weatherlink.com 1.10,2013-08-07 03:35:00,
2013-08-06 23:50:00,70.3,68.0,29.85,South,181,0.0,-999.0,92,-99.99,,,0.33,weatherlink.com 1.10,2013-08-07 03:50:00,